createdAt,value
2023-05-03T00:00:30.829Z,3.90
2023-05-03T00:02:59.080Z,3.73
2023-05-03T00:05:26.549Z,3.87
2023-05-03T00:07:53.374Z,3.50
2023-05-03T00:10:20.280Z,3.53
2023-05-03T00:12:47.144Z,4.13
2023-05-03T00:15:14.075Z,3.80
2023-05-03T00:17:41.056Z,4.03
2023-05-03T00:20:10.031Z,4.10
2023-05-03T00:22:36.889Z,3.93
2023-05-03T00:25:04.712Z,4.30
2023-05-03T00:27:31.621Z,3.67
2023-05-03T00:29:58.462Z,4.00
2023-05-03T00:32:26.108Z,4.10
2023-05-03T00:34:53.824Z,4.33
2023-05-03T00:37:22.133Z,3.77
2023-05-03T00:39:49.074Z,3.93
2023-05-03T00:42:15.977Z,4.13
2023-05-03T00:44:42.921Z,3.77
2023-05-03T00:47:10.732Z,3.63
2023-05-03T00:49:38.296Z,4.00
2023-05-03T00:52:06.627Z,3.97
2023-05-03T00:54:36.004Z,3.80
2023-05-03T00:57:05.106Z,3.60
2023-05-03T00:59:32.834Z,4.60
2023-05-03T01:02:00.295Z,3.57
2023-05-03T01:04:28.108Z,4.13
2023-05-03T01:07:04.926Z,4.13
2023-05-03T01:09:39.672Z,3.83
2023-05-03T01:12:20.854Z,3.37
2023-05-03T01:14:58.799Z,4.03
2023-05-03T01:17:29.019Z,3.57
2023-05-03T01:20:02.174Z,3.90
2023-05-03T01:22:37.202Z,3.50
2023-05-03T01:25:09.208Z,3.83
2023-05-03T01:27:36.529Z,3.90
2023-05-03T01:30:05.908Z,3.43
2023-05-03T01:32:40.938Z,3.63
2023-05-03T01:35:12.591Z,4.00
2023-05-03T01:37:39.946Z,4.00
2023-05-03T01:40:10.983Z,3.93
2023-05-03T01:42:39.186Z,3.77
2023-05-03T01:45:07.196Z,3.27
2023-05-03T01:47:35.509Z,4.20
2023-05-03T01:50:02.501Z,3.87
2023-05-03T01:52:30.311Z,3.83
2023-05-03T01:54:57.582Z,4.23
2023-05-03T01:57:26.041Z,3.77
2023-05-03T01:59:53.103Z,3.57
2023-05-03T02:02:19.958Z,3.77
2023-05-03T02:04:47.351Z,3.50
2023-05-03T02:07:14.258Z,3.83
2023-05-03T02:09:41.205Z,3.70
2023-05-03T02:12:08.256Z,3.73
2023-05-03T02:14:36.474Z,4.33
2023-05-03T02:17:03.547Z,3.63
2023-05-03T02:19:30.592Z,4.57
2023-05-03T02:21:57.462Z,3.93
2023-05-03T02:24:24.355Z,4.83
2023-05-03T02:26:51.344Z,4.20
2023-05-03T02:29:18.178Z,3.60
2023-05-03T02:31:46.337Z,3.73
2023-05-03T02:34:13.144Z,4.10
2023-05-03T02:36:39.936Z,3.70
2023-05-03T02:39:07.237Z,4.27
2023-05-03T02:41:34.072Z,3.70
2023-05-03T02:44:00.926Z,3.47
2023-05-03T02:46:27.803Z,3.80
2023-05-03T02:48:56.016Z,3.80
2023-05-03T02:51:22.815Z,3.90
2023-05-03T02:53:49.607Z,3.60
2023-05-03T02:56:16.463Z,3.77
2023-05-03T02:58:43.281Z,3.63
2023-05-03T03:01:11.389Z,3.73
2023-05-03T03:03:38.280Z,3.77
2023-05-03T03:06:07.126Z,3.83
2023-05-03T03:08:33.988Z,4.07
2023-05-03T03:11:00.918Z,4.20
2023-05-03T03:13:27.812Z,4.03
2023-05-03T03:15:55.045Z,4.00
2023-05-03T03:18:21.882Z,3.77
2023-05-03T03:20:48.686Z,4.70
2023-05-03T03:23:16.870Z,3.70
2023-05-03T03:25:43.641Z,4.20
2023-05-03T03:28:10.541Z,4.10
2023-05-03T03:30:37.380Z,3.90
2023-05-03T03:33:04.515Z,3.93
2023-05-03T03:35:31.892Z,4.10
2023-05-03T03:37:58.793Z,3.60
2023-05-03T03:40:26.953Z,4.10
2023-05-03T03:42:53.753Z,4.27
2023-05-03T03:45:20.582Z,3.80
2023-05-03T03:47:47.386Z,4.17
2023-05-03T03:50:14.382Z,4.27
2023-05-03T03:52:41.266Z,4.20
2023-05-03T03:55:08.305Z,4.27
2023-05-03T03:57:36.453Z,4.37
2023-05-03T04:00:05.594Z,4.57
2023-05-03T04:02:32.855Z,4.13
2023-05-03T04:04:59.874Z,4.07
2023-05-03T04:07:27.614Z,4.23
2023-05-03T04:09:54.520Z,4.40
2023-05-03T04:12:21.329Z,3.93
2023-05-03T04:14:50.090Z,4.50
2023-05-03T04:17:16.940Z,4.00
2023-05-03T04:19:44.252Z,4.10
2023-05-03T04:22:11.105Z,4.20
2023-05-03T04:24:39.680Z,4.27
2023-05-03T04:27:06.552Z,4.47
2023-05-03T04:29:33.419Z,4.30
2023-05-03T04:32:02.353Z,4.17
2023-05-03T04:34:30.209Z,4.50
2023-05-03T04:36:57.321Z,4.47
2023-05-03T04:39:24.662Z,4.80
2023-05-03T04:41:51.439Z,4.90
2023-05-03T04:44:18.768Z,4.20
2023-05-03T04:46:46.166Z,4.47
2023-05-03T04:49:15.618Z,4.23
2023-05-03T04:51:42.455Z,4.30
2023-05-03T04:54:09.286Z,4.90
2023-05-03T04:56:36.140Z,4.17
2023-05-03T04:59:04.385Z,4.50
2023-05-03T05:01:31.210Z,4.67
2023-05-03T05:03:58.193Z,4.40
2023-05-03T05:06:27.318Z,4.20
2023-05-03T05:08:54.125Z,4.13
2023-05-03T05:11:22.211Z,4.30
2023-05-03T05:13:49.091Z,4.70
2023-05-03T05:16:16.334Z,4.50
2023-05-03T05:18:43.355Z,3.77
2023-05-03T05:21:10.191Z,4.47
2023-05-03T05:23:38.405Z,4.10
2023-05-03T05:26:05.554Z,4.47
2023-05-03T05:28:32.843Z,4.27
2023-05-03T05:30:59.690Z,4.13
2023-05-03T05:33:26.695Z,4.50
2023-05-03T05:35:53.679Z,4.43
2023-05-03T05:38:20.702Z,4.10
2023-05-03T05:40:48.929Z,3.97
2023-05-03T05:43:15.689Z,3.53
2023-05-03T05:45:42.612Z,3.50
2023-05-03T05:48:09.486Z,4.13
2023-05-03T05:50:36.576Z,3.93
2023-05-03T05:53:03.509Z,3.20
2023-05-03T05:55:30.723Z,3.63
2023-05-03T05:57:58.953Z,3.50
2023-05-03T06:00:26.113Z,3.20
2023-05-03T06:02:52.999Z,3.17
2023-05-03T06:05:21.074Z,3.27
2023-05-03T06:07:48.443Z,3.30
2023-05-03T06:10:15.622Z,3.23
2023-05-03T06:12:43.011Z,3.10
2023-05-03T06:15:11.364Z,4.27
2023-05-03T06:17:38.240Z,3.33
2023-05-03T06:20:06.742Z,3.90
2023-05-03T06:22:33.728Z,3.90
2023-05-03T06:25:00.796Z,4.17
2023-05-03T06:27:27.635Z,4.07
2023-05-03T06:29:54.433Z,3.17
2023-05-03T06:32:23.368Z,3.73
2023-05-03T06:34:50.737Z,3.63
2023-05-03T06:37:17.675Z,3.33
2023-05-03T06:39:44.613Z,3.43
2023-05-03T06:42:11.599Z,3.37
2023-05-03T06:44:38.389Z,3.43
2023-05-03T06:47:05.285Z,3.60
2023-05-03T06:49:33.795Z,4.00
2023-05-03T06:52:00.816Z,2.90
2023-05-03T06:54:27.751Z,3.40
2023-05-03T06:56:54.626Z,3.77
2023-05-03T06:59:21.433Z,19.77
2023-05-03T07:01:48.282Z,4.37
2023-05-03T07:04:15.297Z,3.77
2023-05-03T07:06:55.294Z,4.13
2023-05-03T07:09:35.433Z,3.70
2023-05-03T07:12:08.786Z,3.77
2023-05-03T07:14:36.502Z,3.90
2023-05-03T07:17:03.504Z,3.80
2023-05-03T07:19:30.554Z,3.40
2023-05-03T07:21:58.971Z,3.40
2023-05-03T07:24:26.113Z,3.80
2023-05-03T07:26:53.085Z,3.43
2023-05-03T07:29:20.050Z,3.97
2023-05-03T07:31:47.271Z,3.70
2023-05-03T07:34:14.347Z,3.77
2023-05-03T07:36:41.324Z,3.10
2023-05-03T07:39:09.587Z,3.23
2023-05-03T07:41:37.031Z,3.03
2023-05-03T07:44:04.331Z,4.30
2023-05-03T07:46:34.876Z,3.40
2023-05-03T07:49:01.986Z,3.77
2023-05-03T07:51:29.063Z,3.03
2023-05-03T07:53:59.181Z,3.20
2023-05-03T07:56:28.985Z,3.77
2023-05-03T07:59:07.691Z,3.70
2023-05-03T08:01:36.787Z,3.70
2023-05-03T08:04:04.631Z,3.23
2023-05-03T08:06:32.548Z,3.83
2023-05-03T08:08:59.559Z,3.70
2023-05-03T08:11:31.816Z,4.30
2023-05-03T08:13:58.707Z,3.50
2023-05-03T08:16:26.221Z,3.97
2023-05-03T08:18:53.153Z,3.70
2023-05-03T08:21:20.109Z,5.13
2023-05-03T08:23:47.488Z,4.20
2023-05-03T08:26:14.631Z,4.40
2023-05-03T08:28:42.915Z,3.80
2023-05-03T08:31:09.933Z,3.40
2023-05-03T08:33:37.143Z,4.07
2023-05-03T08:36:04.303Z,11.10
2023-05-03T08:38:31.434Z,3.97
2023-05-03T08:41:04.989Z,4.20
2023-05-03T08:43:34.748Z,3.87
2023-05-03T08:46:03.241Z,3.73
2023-05-03T08:48:31.322Z,3.37
2023-05-03T08:51:00.107Z,3.20
2023-05-03T08:53:27.045Z,3.77
2023-05-03T08:55:54.145Z,4.10
2023-05-03T08:58:21.524Z,4.10
2023-05-03T09:00:48.433Z,3.60
2023-05-03T09:03:16.824Z,3.30
2023-05-03T09:05:45.014Z,3.60
2023-05-03T09:08:13.697Z,4.07
2023-05-03T09:10:42.617Z,3.17
2023-05-03T09:13:10.443Z,3.72
2023-05-03T09:15:37.484Z,4.03
2023-05-03T09:18:09.000Z,4.40
2023-05-03T09:20:39.603Z,3.10
2023-05-03T09:23:07.078Z,3.27
2023-05-03T09:25:47.736Z,3.33
2023-05-03T09:28:15.575Z,4.30
2023-05-03T09:30:43.092Z,5.33
2023-05-03T09:33:11.475Z,4.17
2023-05-03T09:35:56.447Z,3.97
2023-05-03T09:38:27.370Z,3.83
2023-05-03T09:40:54.330Z,4.10
2023-05-03T09:43:21.160Z,4.40
2023-05-03T09:45:48.228Z,4.57
2023-05-03T09:48:16.897Z,3.90
2023-05-03T09:50:45.540Z,4.23
2023-05-03T09:53:12.994Z,3.50
2023-05-03T09:55:41.043Z,3.57
2023-05-03T09:58:08.551Z,3.87
2023-05-03T10:00:39.631Z,4.43
2023-05-03T10:03:09.377Z,3.80
2023-05-03T10:05:43.921Z,3.60
2023-05-03T10:08:19.691Z,3.50
2023-05-03T10:10:54.273Z,3.65
2023-05-03T10:13:22.752Z,3.60
2023-05-03T10:15:53.677Z,3.80
2023-05-03T10:18:22.178Z,3.80
2023-05-03T10:20:54.918Z,3.80
2023-05-03T10:23:23.285Z,4.00
2023-05-03T10:26:15.397Z,3.63
2023-05-03T10:28:43.444Z,3.33
2023-05-03T10:31:43.896Z,3.80
2023-05-03T10:34:21.487Z,3.63
2023-05-03T10:36:50.482Z,3.90
2023-05-03T10:39:19.552Z,4.33
2023-05-03T10:41:58.464Z,4.20
2023-05-03T10:44:34.400Z,3.70
2023-05-03T10:47:11.326Z,3.70
2023-05-03T10:49:38.228Z,3.77
2023-05-03T10:52:39.094Z,3.17
2023-05-03T10:55:10.996Z,3.30
2023-05-03T10:57:40.268Z,3.73
2023-05-03T11:00:13.897Z,3.80
2023-05-03T11:02:55.135Z,3.20
2023-05-03T11:05:24.144Z,3.50
2023-05-03T11:07:51.090Z,3.50
2023-05-03T11:10:19.998Z,4.43
2023-05-03T11:12:48.712Z,4.23
2023-05-03T11:15:15.709Z,3.00
2023-05-03T11:17:42.618Z,2.83
2023-05-03T11:20:11.456Z,3.20
2023-05-03T11:22:38.340Z,2.80
2023-05-03T11:25:06.849Z,3.30
2023-05-03T11:27:34.945Z,3.77
2023-05-03T11:30:01.813Z,3.47
2023-05-03T11:32:30.764Z,3.07
2023-05-03T11:34:59.201Z,2.53
2023-05-03T11:37:26.961Z,2.60
2023-05-03T11:39:53.825Z,2.97
2023-05-03T11:42:21.196Z,2.50
2023-05-03T11:44:49.443Z,2.73
2023-05-03T11:47:16.341Z,3.47
2023-05-03T11:49:52.308Z,3.40
2023-05-03T11:52:21.833Z,3.77
2023-05-03T11:54:48.838Z,2.70
2023-05-03T11:57:16.243Z,2.87
2023-05-03T11:59:44.912Z,2.90
2023-05-03T12:02:14.610Z,3.30
2023-05-03T12:04:44.849Z,2.87
2023-05-03T12:07:15.360Z,2.27
2023-05-03T12:09:47.133Z,2.50
2023-05-03T12:12:23.867Z,2.10
2023-05-03T12:14:58.413Z,2.23
2023-05-03T12:17:38.828Z,2.50
2023-05-03T12:21:05.119Z,2.30
2023-05-03T12:23:09.564Z,2.17
2023-05-03T12:25:39.790Z,2.23
2023-05-03T12:28:19.585Z,3.00
2023-05-03T12:30:48.017Z,2.43
2023-05-03T12:33:17.307Z,2.90
2023-05-03T12:35:47.805Z,2.80
2023-05-03T12:38:17.035Z,2.40
2023-05-03T12:40:48.637Z,2.30
2023-05-03T12:43:16.138Z,2.27
2023-05-03T12:45:46.938Z,2.80
2023-05-03T12:48:24.979Z,2.30
2023-05-03T12:50:52.406Z,2.47
2023-05-03T12:53:19.564Z,2.40
2023-05-03T12:55:51.540Z,2.40
2023-05-03T13:01:27.272Z,1.87
2023-05-03T13:03:43.440Z,2.17
2023-05-03T13:06:13.910Z,1.90
2023-05-03T13:08:49.629Z,2.23
2023-05-03T13:11:19.267Z,2.77
2023-05-03T13:13:46.629Z,2.23
2023-05-03T13:16:14.422Z,2.13
2023-05-03T13:18:45.540Z,2.07
2023-05-03T13:21:12.373Z,2.40
2023-05-03T13:23:39.169Z,2.03
2023-05-03T13:26:06.961Z,2.33
2023-05-03T13:28:33.825Z,2.10
2023-05-03T13:31:00.710Z,2.00
2023-05-03T13:33:28.638Z,1.90
2023-05-03T13:35:57.432Z,2.20
2023-05-03T13:38:24.525Z,1.97
2023-05-03T13:40:52.874Z,2.13
2023-05-03T13:43:20.024Z,2.30
2023-05-03T13:45:46.853Z,2.30
2023-05-03T13:48:18.652Z,2.73
2023-05-03T13:50:46.302Z,2.00
2023-05-03T13:53:14.927Z,2.20
2023-05-03T13:55:41.861Z,2.40
2023-05-03T13:58:08.860Z,1.90
2023-05-03T14:00:36.210Z,2.30
2023-05-03T14:03:04.278Z,1.97
2023-05-03T14:05:31.171Z,1.57
2023-05-03T14:07:58.877Z,2.23
2023-05-03T14:10:28.192Z,2.20
2023-05-03T14:12:58.231Z,2.33
2023-05-03T14:15:25.051Z,2.00
2023-05-03T14:17:52.102Z,3.63
2023-05-03T14:20:19.990Z,2.30
2023-05-03T14:22:47.413Z,2.10
2023-05-03T14:25:14.348Z,2.03
2023-05-03T14:27:43.878Z,1.90
2023-05-03T14:30:11.636Z,2.30
2023-05-03T14:32:38.604Z,2.00
2023-05-03T14:35:06.693Z,1.93
2023-05-03T14:37:33.749Z,1.90
2023-05-03T14:40:00.805Z,2.13
2023-05-03T14:42:30.188Z,2.10
2023-05-03T14:44:58.413Z,2.10
2023-05-03T14:47:25.362Z,1.70
2023-05-03T14:49:52.501Z,1.83
2023-05-03T14:52:19.458Z,2.13
2023-05-03T14:54:46.557Z,1.87
2023-05-03T14:57:13.413Z,2.03
2023-05-03T14:59:40.403Z,1.90
2023-05-03T15:02:10.295Z,1.80
2023-05-03T15:04:37.704Z,1.63
2023-05-03T15:07:06.466Z,2.10
2023-05-03T15:09:33.811Z,1.50
2023-05-03T15:12:01.998Z,1.60
2023-05-03T15:14:29.171Z,1.60
2023-05-03T15:16:56.280Z,2.03
2023-05-03T15:19:24.729Z,2.10
2023-05-03T15:21:52.012Z,1.60
2023-05-03T15:24:18.928Z,2.00
2023-05-03T15:26:46.727Z,1.93
2023-05-03T15:29:13.915Z,1.70
2023-05-03T15:31:41.115Z,1.73
2023-05-03T15:34:07.964Z,1.60
2023-05-03T15:36:37.659Z,1.70
2023-05-03T15:39:04.699Z,1.63
2023-05-03T15:41:31.569Z,2.07
2023-05-03T15:43:59.545Z,1.50
2023-05-03T15:46:26.453Z,1.50
2023-05-03T15:48:54.935Z,1.50
2023-05-03T15:51:21.781Z,1.60
2023-05-03T15:53:50.094Z,1.60
2023-05-03T15:56:17.000Z,1.33
2023-05-03T15:58:43.962Z,1.70
2023-05-03T16:01:10.870Z,1.30
2023-05-03T16:03:37.771Z,1.47
2023-05-03T16:06:05.914Z,1.30
2023-05-03T16:08:32.921Z,1.50
2023-05-03T16:11:01.544Z,1.90
2023-05-03T16:13:28.993Z,3.10
2023-05-03T16:15:56.856Z,2.10
2023-05-03T16:18:24.319Z,1.33
2023-05-03T16:20:51.257Z,1.80
2023-05-03T16:23:18.108Z,1.47
2023-05-03T16:25:45.296Z,1.33
2023-05-03T16:28:13.631Z,1.10
2023-05-03T16:30:40.969Z,1.30
2023-05-03T16:33:07.948Z,1.80
2023-05-03T16:35:35.209Z,1.70
2023-05-03T16:38:02.864Z,1.40
2023-05-03T16:40:30.061Z,1.13
2023-05-03T16:42:58.147Z,1.23
2023-05-03T16:45:26.361Z,1.97
2023-05-03T16:47:53.306Z,1.33
2023-05-03T16:50:20.603Z,1.27
2023-05-03T16:52:47.455Z,1.13
2023-05-03T16:55:14.481Z,1.30
2023-05-03T16:57:41.728Z,1.33
2023-05-03T17:00:11.163Z,1.10
2023-05-03T17:02:40.372Z,1.30
2023-05-03T17:05:08.303Z,1.37
2023-05-03T17:07:35.692Z,1.30
2023-05-03T17:10:03.629Z,1.30
2023-05-03T17:12:31.232Z,1.00
2023-05-03T17:14:58.254Z,0.97
2023-05-03T17:17:25.128Z,1.13
2023-05-03T17:19:53.520Z,1.17
2023-05-03T17:22:20.680Z,1.30
2023-05-03T17:24:47.634Z,1.67
2023-05-03T17:27:14.690Z,1.10
2023-05-03T17:29:41.564Z,1.47
2023-05-03T17:32:08.405Z,1.60
2023-05-03T17:34:36.164Z,1.40
2023-05-03T17:37:05.550Z,1.10
2023-05-03T17:39:32.962Z,1.23
2023-05-03T17:41:59.865Z,1.20
2023-05-03T17:44:27.836Z,1.20
2023-05-03T17:46:54.826Z,1.23
2023-05-03T17:49:21.761Z,1.17
2023-05-03T17:51:49.237Z,1.27
2023-05-03T17:54:17.446Z,1.10
2023-05-03T17:56:44.808Z,1.10
2023-05-03T17:59:11.647Z,1.47
2023-05-03T18:01:38.528Z,1.00
2023-05-03T18:04:05.398Z,1.30
2023-05-03T18:06:32.396Z,2.17
2023-05-03T18:08:59.232Z,2.50
2023-05-03T18:11:27.658Z,1.20
2023-05-03T18:13:54.472Z,1.03
2023-05-03T18:16:21.411Z,1.20
2023-05-03T18:18:48.446Z,0.90
2023-05-03T18:21:15.307Z,1.10
2023-05-03T18:23:43.148Z,1.10
2023-05-03T18:26:11.383Z,1.00
2023-05-03T18:28:39.556Z,1.50
2023-05-03T18:31:06.845Z,0.90
2023-05-03T18:33:34.038Z,1.30
2023-05-03T18:36:02.893Z,1.27
2023-05-03T18:38:29.817Z,1.07
2023-05-03T18:40:56.963Z,1.50
2023-05-03T18:43:23.942Z,1.13
2023-05-03T18:45:52.284Z,1.40
2023-05-03T18:48:19.252Z,1.50
2023-05-03T18:50:46.374Z,1.43
2023-05-03T18:53:14.088Z,1.30
2023-05-03T18:55:42.140Z,1.63
2023-05-03T18:58:10.406Z,1.50
2023-05-03T19:00:39.508Z,1.10
2023-05-03T19:03:09.174Z,1.47
2023-05-03T19:05:36.248Z,1.57
2023-05-03T19:08:03.173Z,1.60
2023-05-03T19:10:30.145Z,1.50
2023-05-03T19:12:57.601Z,1.93
2023-05-03T19:15:25.108Z,2.77
2023-05-03T19:17:52.092Z,1.73
2023-05-03T19:20:20.315Z,1.33
2023-05-03T19:22:47.520Z,1.83
2023-05-03T19:25:15.054Z,1.50
2023-05-03T19:27:42.026Z,1.70
2023-05-03T19:30:09.716Z,1.77
2023-05-03T19:32:39.001Z,1.57
2023-05-03T19:35:08.579Z,1.30
2023-05-03T19:37:37.458Z,1.40
2023-05-03T19:40:06.239Z,1.33
2023-05-03T19:42:33.576Z,1.47
2023-05-03T19:45:02.917Z,1.90
2023-05-03T19:47:30.030Z,1.60
2023-05-03T19:49:57.207Z,1.30
2023-05-03T19:52:24.164Z,1.50
2023-05-03T19:54:52.470Z,1.40
2023-05-03T19:57:19.644Z,1.30
2023-05-03T19:59:47.941Z,1.30
2023-05-03T20:02:14.866Z,1.03
2023-05-03T20:04:42.491Z,1.10
2023-05-03T20:07:09.429Z,1.60
2023-05-03T20:09:36.777Z,1.70
2023-05-03T20:12:05.921Z,1.17
2023-05-03T20:14:32.793Z,1.37
2023-05-03T20:16:59.792Z,1.37
2023-05-03T20:19:27.701Z,1.77
2023-05-03T20:21:54.840Z,1.70
2023-05-03T20:24:22.168Z,1.50
2023-05-03T20:26:49.144Z,1.60
2023-05-03T20:29:18.268Z,1.47
2023-05-03T20:31:48.068Z,1.50
2023-05-03T20:34:15.592Z,1.53
2023-05-03T20:36:42.477Z,1.20
2023-05-03T20:39:09.864Z,1.40
2023-05-03T20:41:37.780Z,1.33
2023-05-03T20:44:05.671Z,1.00
2023-05-03T20:46:35.208Z,1.40
2023-05-03T20:49:02.309Z,1.10
2023-05-03T20:51:29.230Z,1.30
2023-05-03T20:53:56.134Z,1.00
2023-05-03T20:56:22.970Z,1.40
2023-05-03T20:58:49.939Z,1.47
2023-05-03T21:01:17.743Z,1.50
2023-05-03T21:03:46.111Z,1.63
2023-05-03T21:06:12.950Z,1.70
2023-05-03T21:08:39.941Z,1.80
2023-05-03T21:11:06.874Z,1.50
2023-05-03T21:13:35.652Z,1.20
2023-05-03T21:16:03.192Z,1.60
2023-05-03T21:18:30.026Z,1.53
2023-05-03T21:20:58.219Z,1.30
2023-05-03T21:23:25.111Z,1.60
2023-05-03T21:25:55.209Z,1.30
2023-05-03T21:28:23.015Z,1.77
2023-05-03T21:30:50.005Z,1.63
2023-05-03T21:33:16.910Z,1.20
2023-05-03T21:35:43.808Z,1.23
2023-05-03T21:38:12.137Z,1.40
2023-05-03T21:40:38.952Z,1.30
2023-05-03T21:43:07.563Z,1.30
2023-05-03T21:45:34.488Z,1.93
2023-05-03T21:48:02.103Z,1.50
2023-05-03T21:50:28.922Z,1.43
2023-05-03T21:52:55.825Z,1.53
2023-05-03T21:55:24.193Z,1.50
2023-05-03T21:57:51.327Z,1.33
2023-05-03T22:00:20.702Z,1.50
2023-05-03T22:02:48.612Z,1.20
2023-05-03T22:05:15.767Z,1.23
2023-05-03T22:07:42.702Z,1.23
2023-05-03T22:10:10.060Z,1.30
2023-05-03T22:12:38.238Z,1.50
2023-05-03T22:15:06.176Z,1.30
2023-05-03T22:17:33.076Z,1.30
2023-05-03T22:19:59.938Z,1.20
2023-05-03T22:22:26.827Z,1.43
2023-05-03T22:24:54.513Z,1.40
2023-05-03T22:27:21.401Z,1.20
2023-05-03T22:29:49.601Z,1.40
2023-05-03T22:32:16.381Z,1.50
2023-05-03T22:34:44.509Z,1.30
2023-05-03T22:37:11.934Z,1.43
2023-05-03T22:39:39.478Z,1.63
2023-05-03T22:42:06.346Z,0.97
2023-05-03T22:44:33.522Z,1.20
2023-05-03T22:47:01.803Z,1.20
2023-05-03T22:49:28.584Z,1.57
2023-05-03T22:51:55.514Z,1.53
2023-05-03T22:54:23.156Z,1.40
2023-05-03T22:56:51.071Z,1.70
2023-05-03T22:59:17.920Z,1.60
2023-05-03T23:01:46.130Z,1.83
2023-05-03T23:04:14.450Z,1.30
2023-05-03T23:06:41.237Z,1.30
2023-05-03T23:09:09.644Z,1.73
2023-05-03T23:11:36.422Z,1.57
2023-05-03T23:14:03.362Z,1.40
2023-05-03T23:16:30.262Z,1.43
2023-05-03T23:18:57.513Z,1.60
2023-05-03T23:21:26.122Z,1.87
2023-05-03T23:23:52.911Z,1.70
2023-05-03T23:26:20.015Z,1.50
2023-05-03T23:28:48.573Z,1.53
2023-05-03T23:31:15.974Z,1.17
2023-05-03T23:33:43.209Z,1.50
2023-05-03T23:36:10.072Z,1.47
2023-05-03T23:38:38.297Z,1.63
2023-05-03T23:41:05.252Z,1.50
2023-05-03T23:43:32.100Z,1.57
2023-05-03T23:45:58.884Z,1.50
2023-05-03T23:48:25.958Z,1.40
2023-05-03T23:50:52.866Z,2.03
2023-05-03T23:53:19.649Z,1.60
2023-05-03T23:55:47.888Z,1.50
2023-05-03T23:58:14.694Z,1.60
